CPX454 Details

Departure: March Air Reserve Base (KRIV)
Arrival: Portland International Airport (KPDX)
Route: SOPEA1 OCN J1 LAX J88 SNS SPNSR TMBRS2


Current Weather Information
KRIV 171658Z AUTO 00000KT 8SM CLR 21/17 A2994 RMK AO2 SLP128 T02080166
KPDX 171653Z 29004KT 10SM SCT022 SCT034 BKN044 18/12 A3003 RMK AO2 SLP168 T01830117